Time;durP1;ratioP1;P1;durP2;ratioP2;P2;SDS_P1;SDS_P2;PMS_P1;PMS_P2;Temp;Humidity;BMP_temperature;BMP_pressure;BME280_temperature;BME280_humidity;BME280_pressure;Samples;Min_cycle;Max_cycle;Signal;HPM_P1;HPM_P2
2021/07/13 00:05:08;;;;;;;1.93;1.20;;;;;;;;;;5075481;28;20452;-73
2021/07/13 00:07:34;;;;;;;1.50;1.40;;;;;;;;;;5075830;28;20792;-73
2021/07/13 00:10:00;;;;;;;2.20;1.00;;;;;;;;;;5075349;28;20475;-74
2021/07/13 00:12:26;;;;;;;1.67;1.30;;;;;;;;;;5075511;28;20418;-73
2021/07/13 00:14:52;;;;;;;2.83;1.43;;;;;;;;;;5075305;28;20470;-73
2021/07/13 00:20:22;;;;;;;3.10;1.00;;;;;;;;;;5075294;28;20405;-73
2021/07/13 00:22:48;;;;;;;1.40;1.00;;;;;;;;;;5075229;28;20402;-73
2021/07/13 00:25:15;;;;;;;2.27;1.43;;;;;;;;;;5074844;28;20465;-73
2021/07/13 00:27:41;;;;;;;1.93;1.00;;;;;;;;;;5075101;28;20406;-73
2021/07/13 00:30:10;;;;;;;2.73;1.10;;;;;;;;;;5074915;28;20422;-72
2021/07/13 00:35:40;;;;;;;2.60;1.00;;;;;;;;;;5074726;28;20432;-74
2021/07/13 00:38:06;;;;;;;1.87;1.33;;;;;;;;;;5075333;28;20438;-74
2021/07/13 00:40:32;;;;;;;2.13;1.20;;;;;;;;;;5074544;28;20445;-73
2021/07/13 00:43:00;;;;;;;1.60;1.50;;;;;;;;;;5074577;28;20418;-72
2021/07/13 00:45:26;;;;;;;2.30;1.40;;;;;;;;;;5073968;28;20458;-73
2021/07/13 00:47:52;;;;;;;2.00;1.80;;;;;;;;;;5074670;28;20464;-74
2021/07/13 00:50:20;;;;;;;5.70;2.20;;;;;;;;;;5074506;28;20410;-74
2021/07/13 00:52:46;;;;;;;1.70;1.53;;;;;;;;;;5074262;28;20402;-74
2021/07/13 00:55:13;;;;;;;2.07;1.93;;;;;;;;;;5074296;28;20410;-74
2021/07/13 00:57:39;;;;;;;3.73;1.70;;;;;;;;;;5074225;28;20455;-73
2021/07/13 01:00:10;;;;;;;2.40;1.70;;;;;;;;;;5074597;28;20475;-73
2021/07/13 01:05:44;;;;;;;4.23;1.73;;;;;;;;;;5074340;28;20490;-72
2021/07/13 01:08:13;;;;;;;1.47;1.37;;;;;;;;;;5074325;28;20434;-74
2021/07/13 01:10:42;;;;;;;1.90;1.80;;;;;;;;;;5074229;28;20411;-74
2021/07/13 01:13:13;;;;;;;2.13;1.40;;;;;;;;;;5074285;28;20829;-74
2021/07/13 01:15:45;;;;;;;1.63;1.40;;;;;;;;;;5073836;28;20470;-74
2021/07/13 01:18:11;;;;;;;2.50;1.47;;;;;;;;;;5074025;28;20523;-75
2021/07/13 01:20:55;;;;;;;1.83;1.50;;;;;;;;;;5074041;28;20583;-73
2021/07/13 01:23:40;;;;;;;5.17;2.27;;;;;;;;;;5074043;28;20504;-73
2021/07/13 01:26:16;;;;;;;4.43;1.53;;;;;;;;;;5074065;28;20819;-73
2021/07/13 01:28:47;;;;;;;1.77;1.30;;;;;;;;;;5073786;28;20410;-73
2021/07/13 01:31:17;;;;;;;3.33;1.43;;;;;;;;;;5073617;28;20440;-73
2021/07/13 01:33:45;;;;;;;1.83;1.37;;;;;;;;;;5073739;28;20893;-73
2021/07/13 01:36:37;;;;;;;2.17;1.40;;;;;;;;;;5073788;28;20422;-73
2021/07/13 01:39:04;;;;;;;3.20;1.77;;;;;;;;;;5069254;28;20718;-74
2021/07/13 01:41:32;;;;;;;4.90;1.67;;;;;;;;;;5073589;28;20413;-73
2021/07/13 01:43:59;;;;;;;2.93;1.63;;;;;;;;;;5073713;28;20606;-73
2021/07/13 01:46:25;;;;;;;2.00;1.37;;;;;;;;;;5073480;28;20556;-74
2021/07/13 01:48:55;;;;;;;2.20;1.23;;;;;;;;;;5073517;28;20489;-74
2021/07/13 01:51:22;;;;;;;1.53;1.10;;;;;;;;;;5073517;28;20433;-73
2021/07/13 01:53:49;;;;;;;2.30;0.90;;;;;;;;;;5073549;28;20406;-73
2021/07/13 01:56:15;;;;;;;1.60;1.33;;;;;;;;;;5073307;28;20406;-73
2021/07/13 01:58:42;;;;;;;1.37;1.07;;;;;;;;;;5055289;28;20434;-75
2021/07/13 02:01:10;;;;;;;2.47;1.00;;;;;;;;;;5073168;28;20430;-74
2021/07/13 02:03:37;;;;;;;1.20;1.10;;;;;;;;;;5072748;28;20406;-75
2021/07/13 02:06:03;;;;;;;4.70;2.10;;;;;;;;;;5073084;28;20538;-74
2021/07/13 02:08:30;;;;;;;2.40;1.20;;;;;;;;;;5073165;28;20766;-73
2021/07/13 02:10:56;;;;;;;4.17;1.30;;;;;;;;;;5072927;28;20430;-73
2021/07/13 02:13:22;;;;;;;2.50;1.23;;;;;;;;;;5073151;28;20418;-73
2021/07/13 02:15:48;;;;;;;2.20;1.03;;;;;;;;;;5072902;28;20474;-74
2021/07/13 02:21:18;;;;;;;2.43;1.23;;;;;;;;;;5073013;28;20413;-73
2021/07/13 02:23:44;;;;;;;3.47;1.30;;;;;;;;;;5073067;28;20467;-73
2021/07/13 02:26:12;;;;;;;4.87;1.30;;;;;;;;;;5072726;28;20613;-73
2021/07/13 02:28:40;;;;;;;3.93;2.00;;;;;;;;;;5072963;28;20414;-74
2021/07/13 02:31:18;;;;;;;3.53;1.60;;;;;;;;;;5072835;28;20410;-74
2021/07/13 02:33:44;;;;;;;2.20;1.30;;;;;;;;;;5072958;28;20852;-73
2021/07/13 02:36:13;;;;;;;2.63;1.60;;;;;;;;;;5072913;28;20445;-74
2021/07/13 02:38:40;;;;;;;4.77;1.40;;;;;;;;;;5072837;28;20438;-74
2021/07/13 02:41:06;;;;;;;2.17;1.53;;;;;;;;;;5072517;28;20410;-74
2021/07/13 02:43:33;;;;;;;2.43;1.67;;;;;;;;;;5072778;28;20452;-74
2021/07/13 02:45:59;;;;;;;2.60;2.00;;;;;;;;;;5072586;28;20465;-74
2021/07/13 02:51:29;;;;;;;2.93;1.67;;;;;;;;;;5072748;28;20433;-74
2021/07/13 02:53:56;;;;;;;4.20;1.60;;;;;;;;;;5054674;28;20521;-74
2021/07/13 02:56:22;;;;;;;5.23;1.70;;;;;;;;;;5072552;28;20497;-75
2021/07/13 02:58:49;;;;;;;3.43;1.47;;;;;;;;;;5072657;28;20444;-74
2021/07/13 03:01:15;;;;;;;1.80;1.70;;;;;;;;;;5072526;28;20410;-74
2021/07/13 03:03:42;;;;;;;2.70;2.00;;;;;;;;;;5072524;28;20880;-74
2021/07/13 03:06:08;;;;;;;1.50;1.30;;;;;;;;;;5071599;28;20462;-73
2021/07/13 03:08:34;;;;;;;1.70;1.27;;;;;;;;;;5072078;28;20426;-74
2021/07/13 03:11:02;;;;;;;2.73;1.43;;;;;;;;;;5072384;28;20410;-73
2021/07/13 03:13:28;;;;;;;2.23;1.43;;;;;;;;;;5072687;28;20414;-75
2021/07/13 03:15:54;;;;;;;2.30;1.50;;;;;;;;;;5057174;28;20515;-73
2021/07/13 03:21:25;;;;;;;4.20;1.40;;;;;;;;;;5076578;28;20421;-74
2021/07/13 03:23:52;;;;;;;1.47;1.30;;;;;;;;;;5076203;28;20410;-74
2021/07/13 03:26:18;;;;;;;1.50;1.27;;;;;;;;;;5075901;28;20943;-73
2021/07/13 03:28:45;;;;;;;1.63;1.30;;;;;;;;;;5076127;28;20501;-74
2021/07/13 03:31:11;;;;;;;1.10;1.00;;;;;;;;;;5058282;28;20438;-73
2021/07/13 03:36:41;;;;;;;3.50;1.50;;;;;;;;;;5076059;28;20394;-75
2021/07/13 03:39:08;;;;;;;2.23;1.70;;;;;;;;;;5076313;28;20775;-73
2021/07/13 03:41:34;;;;;;;2.97;1.30;;;;;;;;;;5057945;28;20529;-74
2021/07/13 03:44:01;;;;;;;3.17;1.77;;;;;;;;;;5075907;28;20495;-74
2021/07/13 03:46:27;;;;;;;2.03;1.83;;;;;;;;;;5075760;28;20461;-75
2021/07/13 03:51:56;;;;;;;2.10;1.90;;;;;;;;;;5075769;28;20397;-74
2021/07/13 03:54:22;;;;;;;2.47;2.17;;;;;;;;;;5075965;28;20416;-75
2021/07/13 03:56:49;;;;;;;2.20;1.93;;;;;;;;;;5075561;28;20764;-74
2021/07/13 03:59:16;;;;;;;3.23;1.80;;;;;;;;;;5075973;28;20517;-75
2021/07/13 04:01:42;;;;;;;1.83;1.53;;;;;;;;;;5075397;28;20864;-73
2021/07/13 04:04:08;;;;;;;4.50;2.17;;;;;;;;;;5075562;28;20398;-74
2021/07/13 04:06:34;;;;;;;3.67;2.00;;;;;;;;;;5075638;28;20469;-74
2021/07/13 04:09:00;;;;;;;3.53;1.63;;;;;;;;;;5075621;28;20756;-73
2021/07/13 04:11:26;;;;;;;3.17;2.23;;;;;;;;;;5075182;28;20459;-74
2021/07/13 04:13:52;;;;;;;1.57;1.47;;;;;;;;;;5075171;28;20791;-74
2021/07/13 04:16:18;;;;;;;3.20;2.17;;;;;;;;;;5075188;28;20432;-74
2021/07/13 04:21:48;;;;;;;2.07;1.87;;;;;;;;;;5075095;28;20403;-73
2021/07/13 04:24:14;;;;;;;2.70;2.00;;;;;;;;;;5075147;28;20441;-73
2021/07/13 04:26:40;;;;;;;4.17;1.90;;;;;;;;;;5074134;28;20509;-73
2021/07/13 04:29:06;;;;;;;2.30;1.80;;;;;;;;;;5074956;28;20761;-73
2021/07/13 04:31:33;;;;;;;2.80;1.73;;;;;;;;;;5074747;28;20423;-75
2021/07/13 04:37:03;;;;;;;7.63;2.77;;;;;;;;;;5074803;28;20460;-74
2021/07/13 04:39:29;;;;;;;3.57;2.80;;;;;;;;;;5074882;28;20489;-76
2021/07/13 04:41:55;;;;;;;5.10;2.87;;;;;;;;;;5074555;28;20417;-74
2021/07/13 04:44:21;;;;;;;3.30;2.83;;;;;;;;;;5074608;28;20513;-74
2021/07/13 04:46:47;;;;;;;2.67;2.47;;;;;;;;;;5074176;28;20549;-74
2021/07/13 04:52:16;;;;;;;3.53;2.87;;;;;;;;;;5074466;28;20741;-75
2021/07/13 04:54:42;;;;;;;3.40;3.10;;;;;;;;;;5074237;28;20422;-76
2021/07/13 04:57:08;;;;;;;8.27;3.10;;;;;;;;;;5074498;28;20417;-74
2021/07/13 04:59:34;;;;;;;3.10;2.83;;;;;;;;;;5074488;28;20811;-74
2021/07/13 05:02:00;;;;;;;3.30;3.00;;;;;;;;;;5074538;28;20416;-77
2021/07/13 05:07:30;;;;;;;4.00;3.70;;;;;;;;;;5074333;28;20484;-76
2021/07/13 05:09:56;;;;;;;5.50;4.10;;;;;;;;;;5073894;28;20468;-75
2021/07/13 05:12:22;;;;;;;3.93;3.63;;;;;;;;;;5074353;28;20426;-75
2021/07/13 05:14:48;;;;;;;4.67;4.30;;;;;;;;;;5074087;28;20462;-76
2021/07/13 05:17:14;;;;;;;4.20;3.40;;;;;;;;;;5074085;28;20474;-76
2021/07/13 05:22:44;;;;;;;3.30;3.10;;;;;;;;;;5073850;28;20468;-75
2021/07/13 05:25:11;;;;;;;2.90;2.70;;;;;;;;;;5073641;28;20512;-74
2021/07/13 05:27:41;;;;;;;1.97;1.73;;;;;;;;;;5073818;28;20747;-74
2021/07/13 05:30:09;;;;;;;2.60;2.40;;;;;;;;;;5073503;28;20740;-75
2021/07/13 05:32:35;;;;;;;2.60;2.40;;;;;;;;;;5073770;28;20406;-72
2021/07/13 05:35:01;;;;;;;2.33;2.10;;;;;;;;;;5073422;28;20418;-73
2021/07/13 05:37:27;;;;;;;2.93;2.20;;;;;;;;;;5073341;28;20570;-73
2021/07/13 05:39:53;;;;;;;3.60;1.83;;;;;;;;;;5073210;28;20441;-76
2021/07/13 05:42:19;;;;;;;2.33;2.10;;;;;;;;;;5073778;28;20418;-76
2021/07/13 05:44:45;;;;;;;2.30;1.90;;;;;;;;;;5073553;28;20418;-74
2021/07/13 05:47:11;;;;;;;3.10;2.50;;;;;;;;;;5073398;28;20473;-73
2021/07/13 05:52:40;;;;;;;2.90;2.10;;;;;;;;;;5073659;28;20767;-74
2021/07/13 05:55:07;;;;;;;2.33;2.13;;;;;;;;;;5073276;28;20896;-76
2021/07/13 05:57:33;;;;;;;2.90;2.60;;;;;;;;;;5073390;28;20406;-74
2021/07/13 05:59:59;;;;;;;2.73;2.53;;;;;;;;;;5073607;28;20757;-76
2021/07/13 06:02:25;;;;;;;5.07;2.30;;;;;;;;;;5073286;28;20406;-76
2021/07/13 06:07:54;;;;;;;2.10;2.00;;;;;;;;;;5073668;28;20405;-76
2021/07/13 06:10:20;;;;;;;2.30;2.10;;;;;;;;;;5073241;28;20565;-75
2021/07/13 06:12:47;;;;;;;2.63;2.10;;;;;;;;;;5073330;28;20414;-74
2021/07/13 06:15:13;;;;;;;3.00;2.60;;;;;;;;;;5073260;28;20473;-73
2021/07/13 06:17:40;;;;;;;2.70;2.50;;;;;;;;;;5073022;28;20892;-73
2021/07/13 06:23:09;;;;;;;2.97;2.20;;;;;;;;;;5073549;28;20914;-73
2021/07/13 06:25:36;;;;;;;2.10;2.00;;;;;;;;;;5072832;28;20976;-75
2021/07/13 06:28:02;;;;;;;4.20;2.47;;;;;;;;;;5073217;28;20468;-75
2021/07/13 06:30:28;;;;;;;3.33;3.00;;;;;;;;;;5072905;28;20487;-75
2021/07/13 06:32:54;;;;;;;4.43;2.30;;;;;;;;;;5072774;28;20406;-74
2021/07/13 06:38:24;;;;;;;6.17;2.80;;;;;;;;;;5072907;28;20417;-75
2021/07/13 06:40:50;;;;;;;2.13;2.03;;;;;;;;;;5072565;28;20425;-75
2021/07/13 06:43:16;;;;;;;5.60;3.67;;;;;;;;;;5073256;28;20402;-74
2021/07/13 06:45:42;;;;;;;2.20;2.10;;;;;;;;;;5072639;28;20474;-75
2021/07/13 06:48:08;;;;;;;2.80;2.60;;;;;;;;;;5072622;28;20479;-76
2021/07/13 06:50:34;;;;;;;1.90;1.80;;;;;;;;;;5077628;28;20464;-74
2021/07/13 06:53:00;;;;;;;2.63;2.40;;;;;;;;;;5079610;28;20509;-77
2021/07/13 06:55:26;;;;;;;2.10;2.00;;;;;;;;;;5079109;28;20873;-76
2021/07/13 06:57:52;;;;;;;2.40;2.20;;;;;;;;;;5079288;28;20853;-75
2021/07/13 07:00:18;;;;;;;2.43;2.23;;;;;;;;;;5061517;28;20441;-74
2021/07/13 07:02:44;;;;;;;2.40;2.20;;;;;;;;;;5079097;28;20437;-73
2021/07/13 07:08:13;;;;;;;3.00;2.80;;;;;;;;;;5079207;28;20412;-76
2021/07/13 07:10:39;;;;;;;3.20;2.50;;;;;;;;;;5079223;28;20417;-75
2021/07/13 07:13:05;;;;;;;2.60;2.30;;;;;;;;;;5079290;28;20831;-75
2021/07/13 07:15:31;;;;;;;5.13;2.70;;;;;;;;;;5078907;28;20548;-74
2021/07/13 07:17:57;;;;;;;3.30;3.00;;;;;;;;;;5079008;28;20867;-76
2021/07/13 07:23:27;;;;;;;4.20;3.17;;;;;;;;;;5079079;28;20504;-76
2021/07/13 07:25:53;;;;;;;4.60;2.70;;;;;;;;;;5078778;28;20450;-76
2021/07/13 07:28:20;;;;;;;6.17;2.97;;;;;;;;;;5079064;28;20429;-77
2021/07/13 07:30:46;;;;;;;3.60;2.13;;;;;;;;;;5061286;28;20551;-77
2021/07/13 07:33:12;;;;;;;2.60;2.40;;;;;;;;;;5079247;28;20719;-77
2021/07/13 07:38:41;;;;;;;3.70;2.20;;;;;;;;;;5079015;28;20475;-76
2021/07/13 07:41:08;;;;;;;3.20;2.40;;;;;;;;;;5078831;28;20450;-77
2021/07/13 07:43:34;;;;;;;2.70;2.40;;;;;;;;;;5078979;28;20406;-76
2021/07/13 07:46:00;;;;;;;3.67;1.87;;;;;;;;;;5078695;28;20944;-75
2021/07/13 07:48:25;;;;;;;2.43;2.23;;;;;;;;;;5060946;28;20437;-77
2021/07/13 07:50:52;;;;;;;3.30;1.83;;;;;;;;;;5078916;28;20509;-76
2021/07/13 07:53:18;;;;;;;3.10;2.00;;;;;;;;;;5079343;28;20482;-74
2021/07/13 07:55:44;;;;;;;2.23;1.90;;;;;;;;;;5079036;28;20433;-74
2021/07/13 07:58:10;;;;;;;3.33;2.30;;;;;;;;;;5079297;28;20419;-75
2021/07/13 08:00:37;;;;;;;2.30;2.10;;;;;;;;;;5077992;28;20426;-76
2021/07/13 08:03:03;;;;;;;3.43;2.23;;;;;;;;;;5057228;28;20440;-77
2021/07/13 08:08:32;;;;;;;2.90;2.57;;;;;;;;;;5075432;28;20923;-75
2021/07/13 08:10:58;;;;;;;2.77;2.57;;;;;;;;;;5075154;28;20415;-76
2021/07/13 08:13:24;;;;;;;2.43;2.23;;;;;;;;;;5075310;28;20430;-73
2021/07/13 08:15:50;;;;;;;3.60;2.30;;;;;;;;;;5075132;28;20476;-77
2021/07/13 08:18:19;;;;;;;4.60;4.20;;;;;;;;;;5075231;28;20418;-75
2021/07/13 08:23:48;;;;;;;2.80;2.50;;;;;;;;;;5075218;28;20826;-77
2021/07/13 08:26:14;;;;;;;3.17;2.47;;;;;;;;;;5074821;28;20843;-76
2021/07/13 08:28:41;;;;;;;2.73;2.50;;;;;;;;;;5075288;28;20422;-76
2021/07/13 08:31:07;;;;;;;3.87;2.97;;;;;;;;;;5075077;28;20896;-76
2021/07/13 08:33:33;;;;;;;3.77;2.63;;;;;;;;;;5075160;28;20414;-76
2021/07/13 08:39:03;;;;;;;4.27;2.90;;;;;;;;;;5074755;28;20417;-76
2021/07/13 08:41:30;;;;;;;3.20;2.90;;;;;;;;;;5074561;28;20417;-76
2021/07/13 08:43:56;;;;;;;2.60;2.40;;;;;;;;;;5056692;28;20436;-76
2021/07/13 08:46:23;;;;;;;5.00;2.60;;;;;;;;;;5074385;28;20499;-73
2021/07/13 08:48:53;;;;;;;2.53;2.30;;;;;;;;;;5074592;28;20406;-76
2021/07/13 08:51:20;;;;;;;3.90;2.70;;;;;;;;;;5074818;28;20472;-77
2021/07/13 08:53:46;;;;;;;2.67;2.47;;;;;;;;;;5074679;28;20505;-77
2021/07/13 08:56:12;;;;;;;2.27;2.17;;;;;;;;;;5074424;28;20418;-77
2021/07/13 08:58:38;;;;;;;3.00;2.80;;;;;;;;;;5074503;28;20444;-77
2021/07/13 09:01:04;;;;;;;2.50;2.30;;;;;;;;;;5074684;28;20421;-76
2021/07/13 09:03:36;;;;;;;4.00;1.90;;;;;;;;;;5074583;28;20506;-76
2021/07/13 09:09:08;;;;;;;2.10;1.73;;;;;;;;;;5074357;28;20969;-74
2021/07/13 09:11:34;;;;;;;1.33;1.10;;;;;;;;;;5074069;28;20402;-75
2021/07/13 09:14:03;;;;;;;0.70;0.70;;;;;;;;;;5073972;28;20512;-76
2021/07/13 09:16:30;;;;;;;0.80;0.60;;;;;;;;;;5074070;28;20438;-74
2021/07/13 09:18:57;;;;;;;1.23;0.60;;;;;;;;;;5074122;28;20467;-76
2021/07/13 09:21:25;;;;;;;2.77;1.00;;;;;;;;;;5074046;28;20403;-76
2021/07/13 09:24:00;;;;;;;1.10;0.67;;;;;;;;;;5073961;28;20422;-76
2021/07/13 09:26:43;;;;;;;0.70;0.60;;;;;;;;;;5073841;28;20465;-76
2021/07/13 09:29:26;;;;;;;0.77;0.57;;;;;;;;;;5074100;28;20414;-76
2021/07/13 09:31:52;;;;;;;0.70;0.50;;;;;;;;;;5073839;28;20471;-72
2021/07/13 09:34:18;;;;;;;0.90;0.50;;;;;;;;;;5073731;28;20765;-76
2021/07/13 09:37:02;;;;;;;1.30;0.80;;;;;;;;;;5073833;28;20403;-77
2021/07/13 09:39:28;;;;;;;0.90;0.90;;;;;;;;;;5074062;28;20756;-76
2021/07/13 09:41:55;;;;;;;0.87;0.50;;;;;;;;;;5073636;28;20513;-77
2021/07/13 09:44:22;;;;;;;0.83;0.60;;;;;;;;;;5074070;28;20417;-76
2021/07/13 09:46:48;;;;;;;0.60;0.30;;;;;;;;;;5073978;28;20470;-77
2021/07/13 09:49:27;;;;;;;1.10;0.23;;;;;;;;;;5074046;28;20470;-77
2021/07/13 09:52:01;;;;;;;1.00;0.30;;;;;;;;;;5073584;28;20425;-75
2021/07/13 09:54:34;;;;;;;1.90;0.50;;;;;;;;;;5073583;28;20983;-77
2021/07/13 09:57:02;;;;;;;4.10;0.67;;;;;;;;;;5073233;28;20957;-75
2021/07/13 09:59:28;;;;;;;0.30;0.20;;;;;;;;;;5073205;28;20433;-75
2021/07/13 10:01:54;;;;;;;0.77;0.40;;;;;;;;;;5073207;28;20414;-76
2021/07/13 10:04:21;;;;;;;3.33;0.37;;;;;;;;;;5073233;28;20437;-75
2021/07/13 10:06:47;;;;;;;0.40;0.30;;;;;;;;;;5073178;28;20946;-77
2021/07/13 10:09:13;;;;;;;0.50;0.30;;;;;;;;;;5073191;28;20936;-74
2021/07/13 10:11:40;;;;;;;0.93;0.50;;;;;;;;;;5073139;28;20418;-76
2021/07/13 10:14:10;;;;;;;0.50;0.40;;;;;;;;;;5073267;28;20464;-76
2021/07/13 10:16:36;;;;;;;0.83;0.30;;;;;;;;;;5073276;28;20426;-77
2021/07/13 10:24:54;;;;;;;0.67;0.40;;;;;;;;;;5072609;28;20899;-77
2021/07/13 10:27:26;;;;;;;0.60;0.30;;;;;;;;;;5073142;28;20473;-76
2021/07/13 10:29:52;;;;;;;1.00;0.50;;;;;;;;;;5072832;28;20414;-78
2021/07/13 10:32:18;;;;;;;1.90;0.40;;;;;;;;;;5072946;28;20881;-77
2021/07/13 10:34:50;;;;;;;0.90;0.30;;;;;;;;;;5054961;28;20457;-76
2021/07/13 10:37:24;;;;;;;0.53;0.40;;;;;;;;;;5072986;28;20414;-77
2021/07/13 10:39:50;;;;;;;0.50;0.40;;;;;;;;;;5072915;28;20419;-76
2021/07/13 10:42:35;;;;;;;0.43;0.40;;;;;;;;;;5072936;28;20430;-75
2021/07/13 10:45:19;;;;;;;0.70;0.40;;;;;;;;;;5072735;28;20428;-74
2021/07/13 10:48:04;;;;;;;0.50;0.30;;;;;;;;;;5072762;28;20471;-74
2021/07/13 10:50:30;;;;;;;0.90;0.30;;;;;;;;;;5072721;28;20402;-76
2021/07/13 10:52:58;;;;;;;1.30;0.40;;;;;;;;;;5072684;28;20433;-75
2021/07/13 10:55:33;;;;;;;0.40;0.30;;;;;;;;;;5072625;28;20406;-76
2021/07/13 10:58:11;;;;;;;0.40;0.23;;;;;;;;;;5072682;28;20471;-76
2021/07/13 11:00:58;;;;;;;0.30;0.20;;;;;;;;;;5072700;28;20410;-75
2021/07/13 11:03:30;;;;;;;0.60;0.30;;;;;;;;;;5072571;28;20763;-76
2021/07/13 11:05:57;;;;;;;0.50;0.30;;;;;;;;;;5072832;28;20498;-75
2021/07/13 11:08:41;;;;;;;0.40;0.40;;;;;;;;;;5054540;28;20422;-73
2021/07/13 11:11:10;;;;;;;0.70;0.40;;;;;;;;;;5072714;28;20508;-75
2021/07/13 11:13:37;;;;;;;0.90;0.40;;;;;;;;;;5072537;28;20453;-78
2021/07/13 11:16:03;;;;;;;0.37;0.20;;;;;;;;;;5072247;28;20454;-74
2021/07/13 11:18:29;;;;;;;0.60;0.30;;;;;;;;;;5072500;28;20414;-75
2021/07/13 11:20:55;;;;;;;0.57;0.30;;;;;;;;;;5072406;28;20406;-77
2021/07/13 11:23:28;;;;;;;1.67;0.50;;;;;;;;;;5072644;28;20410;-76
2021/07/13 11:26:04;;;;;;;0.63;0.40;;;;;;;;;;5072099;28;20458;-76
2021/07/13 11:28:30;;;;;;;1.60;0.40;;;;;;;;;;5072568;28;20422;-77
2021/07/13 11:30:56;;;;;;;0.40;0.40;;;;;;;;;;5072209;28;20475;-76
2021/07/13 11:33:26;;;;;;;0.40;0.30;;;;;;;;;;5072412;28;20450;-76
2021/07/13 11:35:53;;;;;;;0.30;0.20;;;;;;;;;;5072491;28;20406;-73
2021/07/13 11:38:30;;;;;;;1.03;0.47;;;;;;;;;;5075752;28;20915;-74
2021/07/13 11:41:11;;;;;;;0.40;0.20;;;;;;;;;;5075855;28;20955;-77
2021/07/13 11:43:38;;;;;;;0.30;0.20;;;;;;;;;;5076015;28;20421;-77
2021/07/13 11:46:10;;;;;;;0.60;0.40;;;;;;;;;;5075715;28;20568;-75
2021/07/13 11:48:36;;;;;;;0.50;0.40;;;;;;;;;;5075839;28;20425;-74
2021/07/13 11:51:03;;;;;;;0.50;0.37;;;;;;;;;;5075600;28;20422;-75
2021/07/13 11:53:29;;;;;;;2.10;0.50;;;;;;;;;;5075844;28;20471;-77
2021/07/13 11:55:56;;;;;;;2.83;0.80;;;;;;;;;;5075434;28;20761;-75
2021/07/13 11:58:26;;;;;;;0.93;0.37;;;;;;;;;;5075956;28;20710;-74
2021/07/13 12:00:52;;;;;;;0.40;0.30;;;;;;;;;;5075800;28;20410;-73
2021/07/13 12:03:30;;;;;;;0.40;0.30;;;;;;;;;;5075731;28;20409;-76
2021/07/13 12:06:22;;;;;;;0.40;0.30;;;;;;;;;;5075403;28;20855;-76
2021/07/13 12:08:54;;;;;;;0.40;0.40;;;;;;;;;;5071844;28;20430;-74
2021/07/13 12:11:28;;;;;;;0.60;0.40;;;;;;;;;;5075228;28;20433;-76
2021/07/13 12:13:54;;;;;;;0.60;0.30;;;;;;;;;;5075142;28;20952;-77
2021/07/13 12:16:24;;;;;;;0.73;0.47;;;;;;;;;;5075425;28;20441;-76
2021/07/13 12:18:51;;;;;;;0.73;0.33;;;;;;;;;;5075443;28;20509;-76
2021/07/13 12:21:17;;;;;;;1.47;0.73;;;;;;;;;;5075287;28;20429;-75
2021/07/13 12:23:43;;;;;;;0.70;0.40;;;;;;;;;;5075267;28;20418;-77
2021/07/13 12:26:22;;;;;;;0.87;0.40;;;;;;;;;;5074782;28;20461;-75
2021/07/13 12:29:05;;;;;;;0.57;0.30;;;;;;;;;;5074933;28;20472;-76
2021/07/13 12:31:32;;;;;;;0.40;0.33;;;;;;;;;;5074879;28;20471;-76
2021/07/13 12:33:58;;;;;;;0.63;0.50;;;;;;;;;;5075421;28;20512;-73
2021/07/13 12:36:24;;;;;;;1.30;0.57;;;;;;;;;;5075033;28;20560;-76
2021/07/13 12:38:50;;;;;;;0.70;0.40;;;;;;;;;;5075016;28;20411;-76
2021/07/13 12:41:18;;;;;;;1.00;0.70;;;;;;;;;;5075036;28;20972;-76
2021/07/13 12:43:44;;;;;;;0.60;0.40;;;;;;;;;;5075152;28;20399;-77
2021/07/13 12:46:28;;;;;;;0.60;0.30;;;;;;;;;;5074783;28;20465;-75
2021/07/13 12:48:55;;;;;;;0.70;0.70;;;;;;;;;;5074527;28;20493;-76
2021/07/13 12:51:24;;;;;;;0.60;0.50;;;;;;;;;;5074835;28;20530;-76
2021/07/13 12:54:09;;;;;;;0.73;0.50;;;;;;;;;;5075034;28;20741;-77
2021/07/13 12:56:36;;;;;;;0.53;0.53;;;;;;;;;;5074585;28;20417;-76
2021/07/13 12:59:05;;;;;;;0.90;0.80;;;;;;;;;;5074739;28;20421;-76
2021/07/13 13:01:32;;;;;;;0.73;0.50;;;;;;;;;;5074758;28;20768;-75
2021/07/13 13:04:10;;;;;;;0.83;0.70;;;;;;;;;;5074459;28;20410;-77
2021/07/13 13:06:37;;;;;;;2.07;0.50;;;;;;;;;;5074331;28;20473;-74
2021/07/13 13:09:08;;;;;;;0.60;0.50;;;;;;;;;;5074272;28;20398;-78
2021/07/13 13:11:34;;;;;;;2.37;0.83;;;;;;;;;;5074104;28;20418;-76
2021/07/13 13:14:02;;;;;;;1.03;0.80;;;;;;;;;;5074172;28;20406;-78
2021/07/13 13:16:29;;;;;;;0.40;0.40;;;;;;;;;;5074082;28;20450;-73
2021/07/13 13:18:56;;;;;;;0.77;0.70;;;;;;;;;;5074205;28;20424;-77
2021/07/13 13:21:22;;;;;;;1.30;0.53;;;;;;;;;;5056469;28;20533;-76
2021/07/13 13:23:52;;;;;;;0.53;0.50;;;;;;;;;;5074036;28;20434;-77
2021/07/13 13:26:18;;;;;;;0.60;0.50;;;;;;;;;;5073724;28;20512;-77
2021/07/13 13:28:44;;;;;;;1.23;0.77;;;;;;;;;;5073973;28;20436;-77
2021/07/13 13:31:10;;;;;;;1.00;0.80;;;;;;;;;;5073705;28;20418;-74
2021/07/13 13:33:38;;;;;;;1.00;0.80;;;;;;;;;;5073880;28;20830;-75
2021/07/13 13:40:57;;;;;;;2.27;0.60;;;;;;;;;;5073565;28;20446;-77
2021/07/13 13:43:24;;;;;;;1.23;0.70;;;;;;;;;;5073627;28;20406;-77
2021/07/13 13:45:50;;;;;;;0.60;0.60;;;;;;;;;;5073467;28;20457;-76
2021/07/13 13:48:16;;;;;;;0.90;0.80;;;;;;;;;;5073435;28;20425;-75
2021/07/13 13:50:42;;;;;;;1.10;0.73;;;;;;;;;;5073794;28;20433;-73
2021/07/13 13:53:08;;;;;;;0.80;0.80;;;;;;;;;;5073429;28;20443;-74
2021/07/13 13:55:34;;;;;;;4.23;0.77;;;;;;;;;;5073347;28;20410;-76
2021/07/13 13:58:00;;;;;;;0.90;0.67;;;;;;;;;;5073326;28;20429;-75
2021/07/13 14:00:26;;;;;;;1.13;0.60;;;;;;;;;;5072531;28;20812;-76
2021/07/13 14:02:53;;;;;;;4.13;0.80;;;;;;;;;;5073327;28;20414;-77
2021/07/13 14:05:19;;;;;;;0.70;0.53;;;;;;;;;;5073483;28;20398;-78
2021/07/13 14:07:46;;;;;;;0.90;0.80;;;;;;;;;;5073318;28;20916;-76
2021/07/13 14:10:13;;;;;;;1.33;0.83;;;;;;;;;;5073226;28;20418;-77
2021/07/13 14:12:39;;;;;;;2.00;0.80;;;;;;;;;;5055488;28;20869;-75
2021/07/13 14:15:06;;;;;;;0.70;0.50;;;;;;;;;;5073048;28;20876;-76
2021/07/13 14:17:32;;;;;;;0.90;0.60;;;;;;;;;;5073076;28;20765;-76
2021/07/13 14:19:58;;;;;;;0.70;0.60;;;;;;;;;;5073185;28;20873;-78
2021/07/13 14:25:28;;;;;;;1.07;0.97;;;;;;;;;;5073380;28;20499;-78
2021/07/13 14:27:55;;;;;;;1.20;0.97;;;;;;;;;;5073376;28;20422;-75
2021/07/13 14:30:22;;;;;;;0.90;0.50;;;;;;;;;;5073666;28;20422;-76
2021/07/13 14:32:51;;;;;;;1.27;0.70;;;;;;;;;;5073527;28;20770;-75
2021/07/13 14:35:17;;;;;;;0.90;0.60;;;;;;;;;;5072913;28;20414;-73
2021/07/13 14:37:43;;;;;;;1.07;1.00;;;;;;;;;;5072881;28;20425;-74
2021/07/13 14:40:09;;;;;;;0.70;0.60;;;;;;;;;;5072676;28;20414;-75
2021/07/13 14:42:35;;;;;;;0.90;0.90;;;;;;;;;;5072851;28;20438;-75
2021/07/13 14:45:01;;;;;;;0.67;0.50;;;;;;;;;;5072858;28;20410;-75
2021/07/13 14:47:28;;;;;;;2.10;0.60;;;;;;;;;;5072738;28;20466;-75
2021/07/13 14:49:54;;;;;;;1.10;0.70;;;;;;;;;;5073195;28;20571;-76
2021/07/13 14:55:24;;;;;;;1.30;0.90;;;;;;;;;;5072714;28;20959;-76
2021/07/13 14:57:50;;;;;;;0.70;0.70;;;;;;;;;;5054820;28;20595;-76
2021/07/13 15:00:16;;;;;;;0.90;0.60;;;;;;;;;;5072721;28;20422;-73
2021/07/13 15:02:48;;;;;;;0.93;0.70;;;;;;;;;;5072773;28;20405;-75
2021/07/13 15:05:14;;;;;;;3.53;0.93;;;;;;;;;;5072715;28;20406;-78
2021/07/13 15:10:43;;;;;;;3.17;2.30;;;;;;;;;;5074066;28;20417;-76
2021/07/13 15:13:10;;;;;;;2.77;1.80;;;;;;;;;;5076859;28;20489;-76
2021/07/13 15:15:36;;;;;;;1.20;1.10;;;;;;;;;;5076306;28;20453;-75
2021/07/13 15:18:03;;;;;;;2.13;1.93;;;;;;;;;;5076461;28;20897;-77
2021/07/13 15:20:29;;;;;;;1.10;1.00;;;;;;;;;;5076475;28;20417;-76
2021/07/13 15:22:55;;;;;;;1.90;1.13;;;;;;;;;;5076684;28;20421;-75
2021/07/13 15:25:21;;;;;;;0.87;0.87;;;;;;;;;;5076125;28;20407;-75
2021/07/13 15:27:47;;;;;;;1.00;0.90;;;;;;;;;;5076311;28;20434;-77
2021/07/13 15:30:14;;;;;;;1.27;1.03;;;;;;;;;;5076465;28;20428;-76
2021/07/13 15:32:40;;;;;;;2.37;1.10;;;;;;;;;;5076359;28;20426;-74
2021/07/13 15:35:06;;;;;;;1.53;0.60;;;;;;;;;;5076029;28;20769;-75
2021/07/13 15:40:37;;;;;;;0.77;0.60;;;;;;;;;;5076162;28;20965;-74
2021/07/13 15:43:04;;;;;;;1.10;1.00;;;;;;;;;;5075903;28;20453;-76
2021/07/13 15:45:30;;;;;;;0.60;0.57;;;;;;;;;;5075629;28;20454;-74
2021/07/13 15:47:56;;;;;;;2.43;2.23;;;;;;;;;;5075754;28;20425;-76
2021/07/13 15:50:22;;;;;;;1.37;1.07;;;;;;;;;;5076049;28;20501;-75
2021/07/13 15:55:51;;;;;;;0.83;0.60;;;;;;;;;;5076128;28;20409;-75
2021/07/13 15:58:17;;;;;;;1.30;0.77;;;;;;;;;;5075935;28;20410;-77
2021/07/13 16:00:43;;;;;;;1.10;1.00;;;;;;;;;;5075824;28;20437;-75
2021/07/13 16:03:10;;;;;;;1.63;0.80;;;;;;;;;;5075814;28;20410;-74
2021/07/13 16:11:27;;;;;;;0.97;0.90;;;;;;;;;;5075503;28;20444;-77
2021/07/13 16:13:53;;;;;;;1.07;0.80;;;;;;;;;;5075281;28;20834;-77
2021/07/13 16:16:19;;;;;;;1.17;1.07;;;;;;;;;;5075216;28;20418;-75
2021/07/13 16:18:45;;;;;;;1.00;0.90;;;;;;;;;;5075405;28;20433;-76
2021/07/13 16:21:11;;;;;;;1.80;0.83;;;;;;;;;;5075197;28;20421;-76
2021/07/13 16:23:37;;;;;;;0.73;0.73;;;;;;;;;;5074414;28;20418;-74
2021/07/13 16:26:03;;;;;;;0.70;0.67;;;;;;;;;;5075146;28;20557;-74
2021/07/13 16:28:29;;;;;;;1.43;0.70;;;;;;;;;;5075596;28;20410;-75
2021/07/13 16:30:55;;;;;;;0.60;0.50;;;;;;;;;;5075307;28;20421;-74
2021/07/13 16:33:21;;;;;;;0.90;0.90;;;;;;;;;;5075202;28;20411;-77
2021/07/13 16:35:47;;;;;;;0.60;0.60;;;;;;;;;;5075146;28;20417;-76